createdAt,value
2022-12-01T00:01:54.080Z,2.10
2022-12-01T00:03:58.389Z,2.00
2022-12-01T00:06:04.600Z,2.00
2022-12-01T00:08:09.283Z,1.90
2022-12-01T00:10:26.154Z,1.90
2022-12-01T00:12:31.465Z,2.00
2022-12-01T00:14:37.163Z,1.90
2022-12-01T00:16:41.335Z,1.90
2022-12-01T00:18:45.772Z,1.90
2022-12-01T00:20:56.046Z,1.90
2022-12-01T00:23:00.652Z,1.80
2022-12-01T00:25:05.459Z,1.90
2022-12-01T00:27:11.592Z,2.00
2022-12-01T00:29:15.931Z,2.00
2022-12-01T00:31:20.492Z,2.00
2022-12-01T00:33:24.813Z,1.90
2022-12-01T00:35:29.036Z,1.90
2022-12-01T00:37:34.046Z,1.90
2022-12-01T00:39:38.334Z,1.90
2022-12-01T00:41:42.571Z,1.90
2022-12-01T00:43:48.229Z,1.80
2022-12-01T00:45:53.032Z,1.90
2022-12-01T00:47:58.779Z,1.90
2022-12-01T00:50:03.185Z,1.90
2022-12-01T00:52:07.786Z,2.00
2022-12-01T00:54:12.083Z,2.00
2022-12-01T00:56:16.557Z,2.00
2022-12-01T00:58:20.876Z,2.00
2022-12-01T01:00:26.488Z,2.00
2022-12-01T01:02:30.754Z,2.10
2022-12-01T01:04:36.626Z,2.10
2022-12-01T01:06:43.478Z,2.00
2022-12-01T01:08:47.765Z,2.00
2022-12-01T01:10:52.094Z,2.00
2022-12-01T01:12:56.430Z,2.00
2022-12-01T01:15:00.643Z,2.00
2022-12-01T01:17:06.398Z,2.10
2022-12-01T01:19:10.716Z,2.10
2022-12-01T01:21:17.464Z,2.10
2022-12-01T01:23:22.002Z,2.10
2022-12-01T01:25:26.453Z,2.00
2022-12-01T01:27:30.688Z,2.00
2022-12-01T01:29:34.988Z,1.90
2022-12-01T01:31:39.716Z,1.80
2022-12-01T01:33:46.421Z,1.90
2022-12-01T01:35:50.710Z,1.90
2022-12-01T01:37:55.337Z,1.90
2022-12-01T01:39:59.394Z,1.80
2022-12-01T01:42:03.682Z,1.90
2022-12-01T01:44:48.375Z,1.80
2022-12-01T01:46:53.034Z,1.80
2022-12-01T01:49:01.551Z,1.80
2022-12-01T01:51:05.510Z,1.80
2022-12-01T01:53:13.615Z,1.80
2022-12-01T01:55:18.339Z,1.80
2022-12-01T01:57:35.273Z,1.90
2022-12-01T01:59:44.487Z,1.90
2022-12-01T02:01:52.174Z,1.80
2022-12-01T02:03:58.482Z,1.80
2022-12-01T02:06:05.147Z,1.80
2022-12-01T02:08:12.499Z,1.80
2022-12-01T02:10:22.625Z,1.70
2022-12-01T02:12:48.142Z,1.70
2022-12-01T02:15:23.593Z,1.70
2022-12-01T02:17:37.506Z,1.80
2022-12-01T02:20:14.230Z,1.80
2022-12-01T02:22:29.887Z,1.90
2022-12-01T02:25:21.645Z,1.90
2022-12-01T02:27:47.419Z,1.80
2022-12-01T02:30:10.378Z,1.80
2022-12-01T02:32:25.067Z,1.70
2022-12-01T02:34:36.718Z,1.70
2022-12-01T02:36:48.334Z,1.80
2022-12-01T02:38:57.307Z,1.70
2022-12-01T02:41:11.231Z,1.80
2022-12-01T02:43:31.633Z,1.70
2022-12-01T02:45:41.002Z,1.80
2022-12-01T02:47:47.547Z,1.80
2022-12-01T02:49:55.498Z,1.70
2022-12-01T02:52:00.926Z,1.70
2022-12-01T02:54:06.497Z,1.80
2022-12-01T02:56:13.335Z,1.80
2022-12-01T02:58:18.053Z,1.80
2022-12-01T03:00:22.197Z,1.80
2022-12-01T03:02:43.150Z,1.90
2022-12-01T03:04:57.748Z,1.90
2022-12-01T03:07:12.565Z,1.90
2022-12-01T03:09:25.017Z,1.80
2022-12-01T03:11:37.258Z,1.80
2022-12-01T03:13:47.396Z,1.80
2022-12-01T03:16:01.073Z,1.90
2022-12-01T03:18:15.419Z,1.80
2022-12-01T03:20:26.442Z,1.80
2022-12-01T03:22:35.447Z,1.90
2022-12-01T03:24:42.279Z,1.80
2022-12-01T03:26:52.036Z,1.90
2022-12-01T03:28:59.268Z,1.80
2022-12-01T03:31:08.123Z,1.90
2022-12-01T03:33:19.268Z,1.90
2022-12-01T03:35:30.487Z,2.00
2022-12-01T03:37:40.480Z,2.00
2022-12-01T03:39:45.011Z,1.90
2022-12-01T03:41:53.564Z,1.90
2022-12-01T03:44:04.602Z,2.00
2022-12-01T03:46:13.930Z,1.90
2022-12-01T03:48:18.900Z,1.90
2022-12-01T03:50:29.287Z,1.90
2022-12-01T03:52:42.168Z,2.00
2022-12-01T03:54:53.566Z,2.00
2022-12-01T03:57:04.431Z,2.00
2022-12-01T03:59:11.246Z,2.00
2022-12-01T04:01:15.723Z,2.10
2022-12-01T04:03:21.726Z,2.00
2022-12-01T04:05:27.940Z,2.00
2022-12-01T04:07:32.106Z,1.90
2022-12-01T04:09:36.148Z,2.00
2022-12-01T04:11:57.540Z,2.00
2022-12-01T04:14:01.934Z,2.00
2022-12-01T04:16:06.591Z,2.00
2022-12-01T04:18:10.743Z,2.00
2022-12-01T04:20:16.783Z,2.10
2022-12-01T04:22:25.985Z,2.10
2022-12-01T04:24:31.024Z,1.90
2022-12-01T04:26:36.993Z,2.00
2022-12-01T04:28:41.281Z,2.10
2022-12-01T04:30:45.509Z,2.00
2022-12-01T04:32:49.777Z,2.00
2022-12-01T04:34:54.519Z,2.00
2022-12-01T04:36:58.697Z,1.90
2022-12-01T04:39:04.983Z,2.00
2022-12-01T04:41:13.081Z,2.00
2022-12-01T04:43:17.421Z,2.00
2022-12-01T04:45:21.854Z,1.90
2022-12-01T04:47:26.163Z,2.00
2022-12-01T04:49:30.558Z,2.00
2022-12-01T04:51:34.837Z,2.00
2022-12-01T04:53:39.359Z,2.00
2022-12-01T04:55:45.082Z,2.00
2022-12-01T04:57:49.393Z,2.00
2022-12-01T04:59:53.566Z,1.90
2022-12-01T05:01:57.956Z,1.90
2022-12-01T05:04:02.232Z,2.00
2022-12-01T05:06:08.575Z,2.00
2022-12-01T05:08:12.914Z,2.00
2022-12-01T05:10:19.180Z,2.00
2022-12-01T05:12:24.978Z,2.00
2022-12-01T05:14:29.491Z,2.00
2022-12-01T05:16:34.882Z,1.90
2022-12-01T05:18:40.019Z,1.90
2022-12-01T05:21:00.354Z,1.90
2022-12-01T05:23:06.321Z,1.90
2022-12-01T05:25:10.926Z,1.80
2022-12-01T05:27:15.272Z,1.80
2022-12-01T05:29:21.116Z,1.70
2022-12-01T05:31:25.662Z,1.60
2022-12-01T05:33:31.070Z,1.60
2022-12-01T05:35:36.589Z,1.60
2022-12-01T05:37:40.759Z,1.60
2022-12-01T05:39:45.029Z,1.60
2022-12-01T05:41:49.310Z,1.70
2022-12-01T05:43:53.621Z,1.60
2022-12-01T05:46:00.249Z,1.60
2022-12-01T05:48:04.743Z,1.60
2022-12-01T05:50:10.215Z,1.50
2022-12-01T05:52:15.815Z,1.60
2022-12-01T05:54:20.143Z,1.70
2022-12-01T05:56:24.532Z,1.60
2022-12-01T05:58:28.946Z,1.70
2022-12-01T06:00:33.466Z,1.60
2022-12-01T06:02:39.165Z,1.50
2022-12-01T06:04:43.484Z,1.60
2022-12-01T06:06:47.684Z,1.50
2022-12-01T06:08:52.215Z,1.50
2022-12-01T06:10:56.510Z,1.40
2022-12-01T06:13:00.844Z,1.40
2022-12-01T06:15:08.655Z,1.50
2022-12-01T06:17:13.246Z,1.50
2022-12-01T06:19:18.986Z,1.50
2022-12-01T06:21:23.200Z,1.50
2022-12-01T06:23:30.360Z,1.50
2022-12-01T06:25:35.196Z,1.40
2022-12-01T06:27:39.404Z,1.30
2022-12-01T06:29:43.755Z,1.30
2022-12-01T06:31:48.216Z,1.40
2022-12-01T06:33:52.634Z,1.30
2022-12-01T06:36:01.453Z,1.30
2022-12-01T06:38:06.181Z,1.30
2022-12-01T06:40:11.785Z,1.30
2022-12-01T06:42:17.698Z,1.20
2022-12-01T06:44:22.326Z,1.10
2022-12-01T06:46:26.605Z,1.10
2022-12-01T06:48:30.890Z,1.10
2022-12-01T06:50:35.186Z,1.20
2022-12-01T06:52:41.160Z,1.20
2022-12-01T06:54:45.338Z,1.10
2022-12-01T06:56:51.081Z,1.20
2022-12-01T06:58:55.681Z,1.30
2022-12-01T07:01:00.231Z,1.20
2022-12-01T07:03:04.909Z,1.20
2022-12-01T07:05:10.036Z,1.20
2022-12-01T07:07:14.379Z,1.10
2022-12-01T07:09:20.227Z,1.10
2022-12-01T07:11:25.127Z,1.10
2022-12-01T07:13:33.297Z,1.10
2022-12-01T07:15:40.039Z,1.10
2022-12-01T07:17:44.549Z,1.10
2022-12-01T07:19:49.244Z,1.10
2022-12-01T07:21:53.755Z,1.10
2022-12-01T07:23:58.473Z,1.00
2022-12-01T07:26:06.478Z,1.00
2022-12-01T07:28:10.537Z,1.00
2022-12-01T07:30:15.167Z,1.00
2022-12-01T07:32:19.687Z,1.00
2022-12-01T07:34:24.688Z,1.00
2022-12-01T07:36:28.821Z,1.00
2022-12-01T07:38:33.902Z,1.00
2022-12-01T07:40:38.134Z,1.00
2022-12-01T07:42:44.073Z,1.00
2022-12-01T07:44:48.535Z,1.00
2022-12-01T07:46:52.788Z,0.90
2022-12-01T07:48:58.011Z,0.90
2022-12-01T07:51:02.449Z,0.90
2022-12-01T07:53:07.068Z,0.80
2022-12-01T07:55:11.525Z,0.80
2022-12-01T07:57:18.243Z,0.80
2022-12-01T07:59:23.959Z,0.90
2022-12-01T08:01:30.182Z,0.90
2022-12-01T08:03:34.645Z,0.90
2022-12-01T08:05:39.341Z,1.00
2022-12-01T08:07:43.621Z,0.90
2022-12-01T08:09:48.113Z,0.90
2022-12-01T08:11:52.594Z,0.80
2022-12-01T08:13:57.312Z,0.80
2022-12-01T08:16:05.454Z,0.90
2022-12-01T08:18:09.751Z,0.80
2022-12-01T08:20:18.444Z,0.90
2022-12-01T08:22:26.763Z,0.90
2022-12-01T08:24:31.076Z,0.90
2022-12-01T08:26:35.502Z,0.90
2022-12-01T08:28:40.766Z,0.80
2022-12-01T08:30:44.974Z,0.80
2022-12-01T08:32:50.938Z,0.80
2022-12-01T08:34:55.365Z,0.80
2022-12-01T08:36:59.777Z,0.80
2022-12-01T08:39:04.858Z,0.90
2022-12-01T08:41:10.425Z,0.90
2022-12-01T08:43:34.749Z,0.90
2022-12-01T08:45:38.769Z,0.90
2022-12-01T08:47:43.265Z,0.90
2022-12-01T08:49:49.001Z,0.90
2022-12-01T08:51:53.454Z,0.90
2022-12-01T08:53:59.475Z,0.90
2022-12-01T08:56:05.361Z,0.90
2022-12-01T08:58:09.511Z,0.80
2022-12-01T09:00:15.184Z,0.90
2022-12-01T09:02:23.843Z,0.90
2022-12-01T09:04:28.626Z,0.90
2022-12-01T09:06:35.734Z,0.90
2022-12-01T09:08:41.444Z,0.90
2022-12-01T09:15:00.661Z,1.00
2022-12-01T09:21:35.732Z,1.00
2022-12-01T09:23:55.402Z,1.00
2022-12-01T09:29:47.718Z,0.90
2022-12-01T09:35:01.490Z,1.10
2022-12-01T09:37:29.490Z,1.10
2022-12-01T09:40:37.561Z,1.10
2022-12-01T09:42:45.546Z,1.20
2022-12-01T09:45:12.086Z,1.20
2022-12-01T09:47:34.057Z,1.20
2022-12-01T09:49:49.198Z,1.20
2022-12-01T09:51:55.571Z,1.20
2022-12-01T09:54:04.067Z,1.20
2022-12-01T09:56:21.426Z,1.30
2022-12-01T09:58:29.773Z,1.20
2022-12-01T10:00:36.948Z,1.20
2022-12-01T10:02:44.046Z,1.20
2022-12-01T10:04:52.253Z,1.30
2022-12-01T10:07:01.419Z,1.20
2022-12-01T10:09:17.360Z,1.20
2022-12-01T10:11:32.125Z,1.20
2022-12-01T10:13:36.431Z,1.20
2022-12-01T10:15:46.796Z,1.20
2022-12-01T10:18:03.472Z,1.30
2022-12-01T10:20:14.590Z,1.30
2022-12-01T10:22:47.891Z,1.30
2022-12-01T10:24:57.650Z,1.40
2022-12-01T10:27:16.598Z,1.40
2022-12-01T10:29:30.097Z,1.40
2022-12-01T10:31:44.101Z,1.40
2022-12-01T10:34:02.012Z,1.40
2022-12-01T10:36:10.685Z,1.40
2022-12-01T10:38:25.862Z,1.40
2022-12-01T10:40:34.678Z,1.40
2022-12-01T10:42:44.428Z,1.50
2022-12-01T10:44:49.947Z,1.50
2022-12-01T10:46:56.955Z,1.60
2022-12-01T10:49:08.464Z,1.60
2022-12-01T10:51:19.659Z,1.70
2022-12-01T10:53:36.627Z,1.50
2022-12-01T10:55:46.470Z,1.60
2022-12-01T10:57:56.428Z,1.60
2022-12-01T11:00:03.261Z,1.70
2022-12-01T11:02:18.496Z,1.60
2022-12-01T11:04:45.181Z,1.60
2022-12-01T11:06:51.880Z,1.50
2022-12-01T11:08:59.393Z,1.50
2022-12-01T11:11:03.884Z,1.50
2022-12-01T11:13:19.993Z,1.60
2022-12-01T11:15:27.311Z,1.60
2022-12-01T11:17:35.432Z,1.70
2022-12-01T11:19:39.695Z,1.60
2022-12-01T11:21:49.076Z,1.60
2022-12-01T11:23:54.777Z,1.60
2022-12-01T11:26:13.578Z,1.60
2022-12-01T11:28:22.021Z,1.60
2022-12-01T11:30:30.533Z,1.60
2022-12-01T11:32:37.201Z,1.60
2022-12-01T11:34:42.199Z,1.60
2022-12-01T11:36:49.805Z,1.60
2022-12-01T11:38:59.048Z,1.50
2022-12-01T11:41:03.432Z,1.50
2022-12-01T11:43:08.720Z,1.50
2022-12-01T11:45:29.146Z,1.50
2022-12-01T11:47:33.562Z,1.60
2022-12-01T11:49:47.084Z,1.60
2022-12-01T11:51:51.982Z,1.70
2022-12-01T11:54:15.744Z,1.60
2022-12-01T11:56:23.609Z,1.60
2022-12-01T11:58:28.081Z,1.70
2022-12-01T12:00:48.173Z,1.70
2022-12-01T12:03:04.134Z,1.70
2022-12-01T12:05:35.573Z,1.70
2022-12-01T12:07:51.394Z,1.70
2022-12-01T12:10:09.512Z,1.70
2022-12-01T12:12:27.981Z,1.70
2022-12-01T12:14:48.645Z,1.70
2022-12-01T12:17:19.331Z,1.70
2022-12-01T12:20:06.126Z,1.70
2022-12-01T12:22:17.164Z,1.80
2022-12-01T12:24:38.579Z,1.80
2022-12-01T12:26:49.317Z,1.80
2022-12-01T12:29:20.559Z,1.80
2022-12-01T12:31:30.674Z,1.80
2022-12-01T12:33:54.181Z,1.80
2022-12-01T12:36:07.903Z,1.80
2022-12-01T12:38:26.190Z,1.80
2022-12-01T12:40:43.937Z,1.80
2022-12-01T12:43:00.347Z,1.90
2022-12-01T12:45:16.352Z,1.80
2022-12-01T12:47:34.613Z,1.80
2022-12-01T12:49:51.845Z,1.80
2022-12-01T12:52:07.859Z,1.90
2022-12-01T12:54:27.091Z,1.90
2022-12-01T12:56:33.632Z,1.80
2022-12-01T12:58:41.816Z,1.80
2022-12-01T13:00:50.626Z,1.90
2022-12-01T13:02:59.376Z,1.90
2022-12-01T13:05:14.261Z,1.90
2022-12-01T13:07:33.673Z,1.90
2022-12-01T13:09:41.982Z,1.90
2022-12-01T13:11:50.818Z,1.90
2022-12-01T13:14:02.308Z,1.80
2022-12-01T13:16:20.784Z,1.80
2022-12-01T13:18:35.027Z,1.80
2022-12-01T13:20:41.859Z,1.80
2022-12-01T13:22:47.581Z,1.80
2022-12-01T13:24:52.020Z,1.80
2022-12-01T13:26:59.071Z,1.90
2022-12-01T13:29:07.605Z,1.90
2022-12-01T13:31:15.202Z,1.90
2022-12-01T13:33:19.457Z,1.90
2022-12-01T13:35:28.970Z,1.90
2022-12-01T13:37:36.843Z,1.90
2022-12-01T13:39:42.953Z,1.90
2022-12-01T13:41:48.138Z,1.90
2022-12-01T13:44:21.836Z,1.90
2022-12-01T13:46:27.899Z,1.80
2022-12-01T13:48:52.036Z,1.80
2022-12-01T13:51:00.724Z,1.80
2022-12-01T13:53:25.653Z,1.90
2022-12-01T13:55:31.232Z,1.90
2022-12-01T13:57:37.431Z,1.90
2022-12-01T14:00:03.711Z,1.90
2022-12-01T14:02:21.327Z,1.90
2022-12-01T14:04:33.715Z,1.90
2022-12-01T14:06:46.485Z,1.80
2022-12-01T14:08:55.629Z,1.90
2022-12-01T14:11:03.242Z,1.90
2022-12-01T14:13:08.598Z,1.90
2022-12-01T14:15:42.668Z,1.80
2022-12-01T14:17:47.707Z,1.90
2022-12-01T14:19:53.629Z,1.90
2022-12-01T14:21:59.262Z,1.90
2022-12-01T14:24:07.964Z,1.90
2022-12-01T14:26:15.937Z,1.90
2022-12-01T14:28:59.172Z,1.80
2022-12-01T14:31:08.147Z,1.80
2022-12-01T14:33:48.483Z,1.80
2022-12-01T14:35:54.203Z,1.80
2022-12-01T14:37:59.127Z,1.80
2022-12-01T14:40:08.711Z,1.80
2022-12-01T14:42:54.469Z,1.90
2022-12-01T14:44:58.824Z,1.90
2022-12-01T14:47:11.901Z,1.90
2022-12-01T14:49:21.352Z,1.90
2022-12-01T14:51:29.379Z,1.80
2022-12-01T14:53:37.588Z,1.80
2022-12-01T14:55:47.189Z,1.80
2022-12-01T14:57:53.431Z,1.80
2022-12-01T15:00:06.451Z,1.80
2022-12-01T15:02:14.935Z,1.90
2022-12-01T15:04:19.932Z,1.80
2022-12-01T15:06:27.073Z,1.80
2022-12-01T15:08:45.859Z,1.80
2022-12-01T15:10:53.355Z,1.80
2022-12-01T15:12:57.775Z,1.70
2022-12-01T15:15:02.844Z,1.70
2022-12-01T15:17:09.325Z,1.80
2022-12-01T15:19:30.793Z,1.80
2022-12-01T15:21:35.077Z,1.70
2022-12-01T15:23:53.081Z,1.70
2022-12-01T15:25:58.602Z,1.70
2022-12-01T15:28:11.675Z,1.70
2022-12-01T15:30:18.921Z,1.70
2022-12-01T15:32:25.336Z,1.70
2022-12-01T15:34:34.424Z,1.80
2022-12-01T15:36:39.370Z,1.70
2022-12-01T15:38:48.307Z,1.80
2022-12-01T15:41:20.983Z,1.80
2022-12-01T15:43:20.692Z,1.70
2022-12-01T15:45:25.349Z,1.70
2022-12-01T15:47:35.949Z,1.70
2022-12-01T15:49:50.020Z,1.70
2022-12-01T15:51:54.918Z,1.70
2022-12-01T15:54:01.193Z,1.70
2022-12-01T15:56:08.547Z,1.60
2022-12-01T15:58:22.191Z,1.60
2022-12-01T16:00:26.933Z,1.70
2022-12-01T16:02:33.406Z,1.70
2022-12-01T16:04:38.489Z,1.70
2022-12-01T16:06:52.483Z,1.60
2022-12-01T16:08:59.789Z,1.60
2022-12-01T16:11:16.384Z,1.60
2022-12-01T16:13:39.761Z,1.50
2022-12-01T16:15:45.182Z,1.50
2022-12-01T16:17:51.451Z,1.60
2022-12-01T16:20:26.238Z,1.50
2022-12-01T16:22:31.983Z,1.50
2022-12-01T16:24:38.976Z,1.50
2022-12-01T16:26:49.121Z,1.50
2022-12-01T16:28:53.440Z,1.50
2022-12-01T16:30:57.993Z,1.50
2022-12-01T16:33:04.504Z,1.40
2022-12-01T16:35:22.875Z,1.50
2022-12-01T16:37:28.761Z,1.40
2022-12-01T16:39:34.672Z,1.40
2022-12-01T16:41:43.789Z,1.40
2022-12-01T16:44:12.536Z,1.40
2022-12-01T16:46:14.580Z,1.40
2022-12-01T16:48:20.306Z,1.50
2022-12-01T16:50:25.389Z,1.40
2022-12-01T16:52:45.367Z,1.30
2022-12-01T16:54:51.965Z,1.30
2022-12-01T16:56:56.602Z,1.40
2022-12-01T16:59:01.889Z,1.40
2022-12-01T17:01:06.834Z,1.40
2022-12-01T17:03:17.860Z,1.30
2022-12-01T17:05:22.309Z,1.30
2022-12-01T17:07:26.482Z,1.40
2022-12-01T17:09:30.803Z,1.40
2022-12-01T17:11:36.732Z,1.30
2022-12-01T17:13:41.371Z,1.30
2022-12-01T17:15:48.453Z,1.30
2022-12-01T17:17:52.967Z,1.20
2022-12-01T17:19:57.259Z,1.30
2022-12-01T17:22:03.795Z,1.30
2022-12-01T17:24:09.448Z,1.30
2022-12-01T17:26:16.112Z,1.20
2022-12-01T17:28:22.473Z,1.30
2022-12-01T17:30:26.790Z,1.20
2022-12-01T17:32:31.047Z,1.30
2022-12-01T17:34:35.379Z,1.20
2022-12-01T17:36:39.943Z,1.20
2022-12-01T17:38:47.165Z,1.20
2022-12-01T17:41:02.010Z,1.20
2022-12-01T17:43:08.610Z,1.20
2022-12-01T17:45:15.535Z,1.20
2022-12-01T17:47:19.884Z,1.20
2022-12-01T17:49:26.157Z,1.20
2022-12-01T17:51:30.372Z,1.20
2022-12-01T17:53:35.271Z,1.20
2022-12-01T17:55:41.299Z,1.10
2022-12-01T17:57:46.384Z,1.10
2022-12-01T17:59:50.525Z,1.10
2022-12-01T18:01:56.386Z,1.20
2022-12-01T18:04:00.685Z,1.20
2022-12-01T18:06:05.011Z,1.20
2022-12-01T18:08:09.362Z,1.20
2022-12-01T18:10:13.711Z,1.20
2022-12-01T18:12:17.940Z,1.20
2022-12-01T18:14:24.549Z,1.20
2022-12-01T18:16:30.380Z,1.20
2022-12-01T18:18:37.610Z,1.30
2022-12-01T18:20:43.157Z,1.20
2022-12-01T18:22:48.176Z,1.30
2022-12-01T18:24:52.913Z,1.20
2022-12-01T18:26:57.450Z,1.20
2022-12-01T18:29:06.228Z,1.20
2022-12-01T18:31:12.650Z,1.20
2022-12-01T18:33:18.042Z,1.30
2022-12-01T18:35:27.469Z,1.30
2022-12-01T18:37:36.919Z,1.30
2022-12-01T18:39:41.240Z,1.30
2022-12-01T18:41:45.521Z,1.20
2022-12-01T18:43:49.971Z,1.20
2022-12-01T18:45:54.133Z,1.20
2022-12-01T18:47:58.370Z,1.20
2022-12-01T18:50:02.548Z,1.20
2022-12-01T18:52:09.482Z,1.20
2022-12-01T18:54:17.460Z,1.20
2022-12-01T18:56:22.199Z,1.20
2022-12-01T18:58:26.418Z,1.20
2022-12-01T19:00:30.652Z,1.20
2022-12-01T19:02:35.030Z,1.20
2022-12-01T19:04:39.280Z,1.20
2022-12-01T19:06:45.994Z,1.30
2022-12-01T19:08:52.218Z,1.20
2022-12-01T19:11:01.116Z,1.20
2022-12-01T19:13:05.626Z,1.20
2022-12-01T19:15:11.095Z,1.20
2022-12-01T19:17:15.456Z,1.10
2022-12-01T19:19:19.893Z,1.10
2022-12-01T19:21:24.508Z,1.10
2022-12-01T19:23:28.850Z,1.10
2022-12-01T19:25:34.562Z,1.10
2022-12-01T19:27:39.571Z,1.10
2022-12-01T19:29:43.874Z,1.10
2022-12-01T19:31:49.156Z,1.20
2022-12-01T19:33:54.499Z,1.20
2022-12-01T19:35:58.642Z,1.20
2022-12-01T19:38:02.772Z,1.20
2022-12-01T19:40:08.887Z,1.20
2022-12-01T19:42:14.427Z,1.10
2022-12-01T19:44:18.884Z,1.10
2022-12-01T19:46:27.180Z,1.10
2022-12-01T19:48:31.430Z,1.10
2022-12-01T19:50:36.723Z,1.10
2022-12-01T19:52:41.603Z,1.10
2022-12-01T19:54:47.439Z,1.10
2022-12-01T19:56:52.273Z,1.10
2022-12-01T19:58:58.846Z,1.10
2022-12-01T20:01:06.109Z,1.10
2022-12-01T20:03:10.348Z,1.00
2022-12-01T20:05:14.566Z,1.00
2022-12-01T20:07:18.815Z,1.00
2022-12-01T20:09:23.187Z,1.00
2022-12-01T20:11:29.921Z,1.00
2022-12-01T20:13:35.102Z,1.00
2022-12-01T20:15:40.918Z,1.00
2022-12-01T20:17:45.219Z,0.90
2022-12-01T20:19:49.716Z,1.00
2022-12-01T20:21:53.950Z,0.90
2022-12-01T20:24:00.631Z,1.00
2022-12-01T20:26:07.787Z,0.90
2022-12-01T20:28:12.509Z,1.00
2022-12-01T20:30:17.133Z,0.90
2022-12-01T20:32:23.848Z,0.90
2022-12-01T20:34:30.115Z,0.90
2022-12-01T20:36:34.584Z,0.90
2022-12-01T20:38:39.432Z,0.90
2022-12-01T20:40:44.810Z,0.90
2022-12-01T20:42:49.488Z,0.90
2022-12-01T20:44:53.728Z,0.90
2022-12-01T20:46:58.428Z,1.00
2022-12-01T20:49:04.612Z,0.90
2022-12-01T20:51:10.117Z,0.90
2022-12-01T20:53:14.446Z,1.00
2022-12-01T20:55:19.093Z,1.00
2022-12-01T20:57:23.345Z,0.90
2022-12-01T20:59:28.045Z,1.00
2022-12-01T21:01:32.369Z,1.00
2022-12-01T21:03:36.939Z,1.00
2022-12-01T21:05:44.432Z,1.00
2022-12-01T21:07:48.671Z,1.00
2022-12-01T21:09:53.096Z,1.00
2022-12-01T21:12:17.317Z,1.00
2022-12-01T21:14:29.687Z,1.10
2022-12-01T21:16:35.429Z,1.10
2022-12-01T21:18:45.095Z,1.00
2022-12-01T21:20:51.837Z,1.00
2022-12-01T21:22:59.282Z,1.00
2022-12-01T21:25:08.639Z,1.10
2022-12-01T21:27:15.930Z,1.10
2022-12-01T21:29:24.949Z,1.10
2022-12-01T21:31:29.285Z,1.10
2022-12-01T21:33:34.799Z,1.10
2022-12-01T21:35:39.146Z,1.10
2022-12-01T21:37:45.449Z,1.10
2022-12-01T21:39:51.179Z,1.10
2022-12-01T21:41:57.910Z,1.00
2022-12-01T21:44:07.148Z,1.00
2022-12-01T21:46:16.904Z,1.00
2022-12-01T21:48:23.201Z,1.10
2022-12-01T21:50:28.188Z,1.00
2022-12-01T21:52:38.861Z,1.00
2022-12-01T21:54:45.094Z,1.10
2022-12-01T21:56:49.834Z,1.10
2022-12-01T21:58:56.697Z,1.10
2022-12-01T22:01:01.982Z,1.10
2022-12-01T22:03:30.351Z,1.10
2022-12-01T22:05:39.497Z,1.20
2022-12-01T22:07:43.881Z,1.20
2022-12-01T22:09:50.121Z,1.20
2022-12-01T22:11:57.260Z,1.20
2022-12-01T22:14:12.510Z,1.10
2022-12-01T22:16:20.550Z,1.10
2022-12-01T22:18:28.694Z,1.20
2022-12-01T22:20:32.855Z,1.10
2022-12-01T22:22:39.428Z,1.20
2022-12-01T22:24:46.382Z,1.20
2022-12-01T22:27:00.255Z,1.20
2022-12-01T22:29:21.513Z,1.20
2022-12-01T22:31:25.858Z,1.20
2022-12-01T22:33:30.681Z,1.30
2022-12-01T22:35:37.760Z,1.20
2022-12-01T22:37:46.727Z,1.30
2022-12-01T22:39:53.784Z,1.20
2022-12-01T22:42:01.484Z,1.10
2022-12-01T22:44:06.232Z,1.20
2022-12-01T22:46:28.690Z,1.20
2022-12-01T22:48:36.957Z,1.20
2022-12-01T22:50:41.341Z,1.20
2022-12-01T22:52:45.547Z,1.20
2022-12-01T22:54:51.423Z,1.20
2022-12-01T22:57:22.697Z,1.20
2022-12-01T22:59:34.486Z,1.20
2022-12-01T23:01:45.074Z,1.30
2022-12-01T23:03:50.415Z,1.30
2022-12-01T23:05:57.559Z,1.30
2022-12-01T23:08:02.901Z,1.20
2022-12-01T23:10:12.211Z,1.20
2022-12-01T23:12:35.797Z,1.20
2022-12-01T23:14:42.834Z,1.30
2022-12-01T23:16:47.097Z,1.30
2022-12-01T23:18:51.625Z,1.30
2022-12-01T23:20:57.752Z,1.20
2022-12-01T23:23:03.477Z,1.30
2022-12-01T23:25:14.019Z,1.30
2022-12-01T23:27:19.372Z,1.40
2022-12-01T23:29:25.034Z,1.40
2022-12-01T23:31:30.795Z,1.40
2022-12-01T23:33:36.090Z,1.40
2022-12-01T23:35:45.628Z,1.30
2022-12-01T23:37:50.345Z,1.40
2022-12-01T23:39:54.436Z,1.40
2022-12-01T23:41:59.563Z,1.40
2022-12-01T23:44:11.667Z,1.40
2022-12-01T23:46:19.528Z,1.40
2022-12-01T23:48:26.463Z,1.50
2022-12-01T23:50:32.368Z,1.40
2022-12-01T23:52:38.037Z,1.40
2022-12-01T23:54:42.390Z,1.40
2022-12-01T23:56:53.403Z,1.50
2022-12-01T23:58:58.467Z,1.50
